Hauptseite
METAR-TAF:

METAR-TAF

Flughäfen :

La Paz, Mexiko

Breite: 24-04N, Länge: 110-22W, Höhe: 21 m

Beobachtung

Neuester Wetterbericht von vor 1 Stunde und 27 Minuten, um 21:45 UTC
Wind 5 kt aus Nordwest
Temperatur 36°C
Luftfeuchtigkeit 25%
Luftdruck 1008 hPa
Sichtweite: 16.1 km
Himmel klar

METAR: MMLP 222145Z 31005KT 10SM SKC 36/13 A2976 RMK ISOL SC AC CI

Zeit: 17:12 (23:12 UTC)

Prognose

Neuester Wetterbericht von vor 6 Stunden und 28 Minuten, um 16:44 UTC
Gültige Prognose vom 22 um 18 UTC bis 23 um 18 UTC
Wind 10 kt aus Süd/Südwest
Sichtweite: 10 km
Himmel klar
Ab 22 um 2100 UTC
Wind 10 kt aus Nord/Nordwest
Sichtweite: 10 km
Himmel klar
Ab 23 um 0100 UTC
Wind 10 kt aus Südwest
Sichtweite: 10 km
Himmel klar

TAF: MMLP 221644Z 2218/2318 20010KT P6SM SKC FM222100 34010KT P6SM SKC FM230100 23010KT P6SM SKC

Wetterbeobachtungen und Prognosen von mehr als 4000 Flughäfen (METAR und TAF Bericht).

Die verfügbaren Stationen werden durch gelbe und rote Markierungen auf der Karte dargestellt.

Führen Sie die Maus auf sie, um den Namen der Station zu sehen.

Darauf klicken, um die Beobachtung von Wetterbeobachtungen und Prognosen zu sehen.

Um die Karte zu ändern : klicken Sie auf den grünen Tasten mit einem schwarzen Kreuz Zum Vergrößern, auf den grünen Button mit einem Gedankenstrich zu verkleinern, oder auf die grünen Pfeile für benachbarte Karten.


METAR-TAF: